createdAt,value
2023-04-18T00:02:06.995Z,11.20
2023-04-18T00:04:35.867Z,14.20
2023-04-18T00:07:04.413Z,12.57
2023-04-18T00:09:32.850Z,11.35
2023-04-18T00:12:02.102Z,13.02
2023-04-18T00:14:30.712Z,14.40
2023-04-18T00:16:59.194Z,12.07
2023-04-18T00:19:27.815Z,12.52
2023-04-18T00:21:58.040Z,13.23
2023-04-18T00:24:26.503Z,10.48
2023-04-18T00:26:55.042Z,10.82
2023-04-18T00:29:23.431Z,10.90
2023-04-18T00:31:51.824Z,10.48
2023-04-18T00:34:20.398Z,11.55
2023-04-18T00:36:48.739Z,10.55
2023-04-18T00:39:17.143Z,12.25
2023-04-18T00:41:45.521Z,12.45
2023-04-18T00:44:14.149Z,9.88
2023-04-18T00:46:42.909Z,10.90
2023-04-18T00:49:11.808Z,11.75
2023-04-18T00:51:40.797Z,10.05
2023-04-18T00:54:11.254Z,10.20
2023-04-18T00:56:39.819Z,12.75
2023-04-18T00:59:09.875Z,11.85
2023-04-18T01:01:40.289Z,10.02
2023-04-18T01:04:09.377Z,13.25
2023-04-18T01:06:38.076Z,12.90
2023-04-18T01:09:06.660Z,15.20
2023-04-18T01:11:35.998Z,12.82
2023-04-18T01:14:06.509Z,11.05
2023-04-18T01:16:35.024Z,13.00
2023-04-18T01:19:04.862Z,13.57
2023-04-18T01:21:37.326Z,12.65
2023-04-18T01:24:12.278Z,10.20
2023-04-18T01:26:43.641Z,12.07
2023-04-18T01:29:12.223Z,16.10
2023-04-18T01:31:41.148Z,12.32
2023-04-18T01:34:09.786Z,13.25
2023-04-18T01:36:39.063Z,12.23
2023-04-18T01:39:07.566Z,11.80
2023-04-18T01:41:36.584Z,11.48
2023-04-18T01:44:05.352Z,11.98
2023-04-18T01:46:34.193Z,10.48
2023-04-18T01:49:02.732Z,10.57
2023-04-18T01:51:31.602Z,13.45
2023-04-18T01:54:00.157Z,10.68
2023-04-18T01:56:28.556Z,13.32
2023-04-18T01:58:57.188Z,10.88
2023-04-18T02:01:25.712Z,10.27
2023-04-18T02:03:54.514Z,13.77
2023-04-18T02:06:23.114Z,11.32
2023-04-18T02:08:51.521Z,13.70
2023-04-18T02:11:19.998Z,13.50
2023-04-18T02:13:48.628Z,9.95
2023-04-18T02:16:17.068Z,11.00
2023-04-18T02:18:45.820Z,9.98
2023-04-18T02:21:14.205Z,10.68
2023-04-18T02:23:42.693Z,12.30
2023-04-18T02:26:11.305Z,11.95
2023-04-18T02:28:39.756Z,11.52
2023-04-18T02:31:14.330Z,11.82
2023-04-18T02:33:43.869Z,12.35
2023-04-18T02:36:12.989Z,12.90
2023-04-18T02:38:41.477Z,10.98
2023-04-18T02:41:14.898Z,12.60
2023-04-18T02:43:43.597Z,10.07
2023-04-18T02:46:12.433Z,12.35
2023-04-18T02:48:41.049Z,11.65
2023-04-18T02:51:09.710Z,10.20
2023-04-18T02:53:38.174Z,9.05
2023-04-18T02:56:07.208Z,11.02
2023-04-18T02:58:36.439Z,11.93
2023-04-18T03:01:05.035Z,11.05
2023-04-18T03:03:33.612Z,9.32
2023-04-18T03:06:02.088Z,11.48
2023-04-18T03:08:30.628Z,12.15
2023-04-18T03:10:59.138Z,11.57
2023-04-18T03:13:27.657Z,10.70
2023-04-18T03:15:56.358Z,12.70
2023-04-18T03:18:25.001Z,11.07
2023-04-18T03:20:53.408Z,10.52
2023-04-18T03:23:22.029Z,11.70
2023-04-18T03:25:50.544Z,11.77
2023-04-18T03:28:19.045Z,10.85
2023-04-18T03:30:47.673Z,10.70
2023-04-18T03:33:17.166Z,11.25
2023-04-18T03:35:45.678Z,12.45
2023-04-18T03:38:14.141Z,10.25
2023-04-18T03:40:44.462Z,9.85
2023-04-18T03:43:12.855Z,12.30
2023-04-18T03:45:41.244Z,12.40
2023-04-18T03:48:09.734Z,12.32
2023-04-18T03:50:38.225Z,12.88
2023-04-18T03:53:06.745Z,10.80
2023-04-18T03:55:35.497Z,10.50
2023-04-18T03:58:04.087Z,12.65
2023-04-18T04:00:32.522Z,10.85
2023-04-18T04:03:01.824Z,13.40
2023-04-18T04:05:30.716Z,12.00
2023-04-18T04:07:59.275Z,11.00
2023-04-18T04:10:27.748Z,14.30
2023-04-18T04:12:56.399Z,11.82
2023-04-18T04:15:24.906Z,11.32
2023-04-18T04:17:53.673Z,11.30
2023-04-18T04:20:25.751Z,10.57
2023-04-18T04:22:55.209Z,12.63
2023-04-18T04:25:28.441Z,11.20
2023-04-18T04:27:56.933Z,10.73
2023-04-18T04:30:25.419Z,12.02
2023-04-18T04:32:55.059Z,12.00
2023-04-18T04:35:23.612Z,11.73
2023-04-18T04:37:53.152Z,10.45
2023-04-18T04:40:23.018Z,11.45
2023-04-18T04:42:54.155Z,11.27
2023-04-18T04:45:24.076Z,10.60
2023-04-18T04:47:52.713Z,9.50
2023-04-18T04:50:21.268Z,12.82
2023-04-18T04:52:49.883Z,10.15
2023-04-18T04:55:18.998Z,10.27
2023-04-18T04:57:47.720Z,11.10
2023-04-18T05:00:20.801Z,11.77
2023-04-18T05:02:49.766Z,11.23
2023-04-18T05:05:18.796Z,13.02
2023-04-18T05:07:47.393Z,11.60
2023-04-18T05:10:15.877Z,11.40
2023-04-18T05:12:44.589Z,11.00
2023-04-18T05:15:15.225Z,8.93
2023-04-18T05:17:43.741Z,9.40
2023-04-18T05:20:13.348Z,8.93
2023-04-18T05:22:41.814Z,10.48
2023-04-18T05:25:10.357Z,11.43
2023-04-18T05:27:38.945Z,10.55
2023-04-18T05:30:07.984Z,9.93
2023-04-18T05:32:39.014Z,10.25
2023-04-18T05:35:08.125Z,10.88
2023-04-18T05:37:36.795Z,10.35
2023-04-18T05:40:06.755Z,10.25
2023-04-18T05:42:35.239Z,10.07
2023-04-18T05:45:03.933Z,11.13
2023-04-18T05:47:33.474Z,10.38
2023-04-18T05:50:02.015Z,10.20
2023-04-18T05:52:31.191Z,10.98
2023-04-18T05:54:59.683Z,11.95
2023-04-18T05:57:28.135Z,11.73
2023-04-18T05:59:56.608Z,9.40
2023-04-18T06:02:25.745Z,12.82
2023-04-18T06:04:54.609Z,14.00
2023-04-18T06:07:25.337Z,12.10
2023-04-18T06:09:54.094Z,14.15
2023-04-18T06:12:22.568Z,10.45
2023-04-18T06:14:51.171Z,12.27
2023-04-18T06:17:19.702Z,12.55
2023-04-18T06:19:48.134Z,11.98
2023-04-18T06:22:16.678Z,10.57
2023-04-18T06:24:45.133Z,12.23
2023-04-18T06:27:27.999Z,12.35
2023-04-18T06:29:59.198Z,10.35
2023-04-18T06:32:28.085Z,10.93
2023-04-18T06:34:56.652Z,10.05
2023-04-18T06:37:25.212Z,12.13
2023-04-18T06:39:53.750Z,10.40
2023-04-18T06:42:22.773Z,12.13
2023-04-18T06:44:51.449Z,9.65
2023-04-18T06:47:20.039Z,10.07
2023-04-18T06:49:48.626Z,9.48
2023-04-18T06:52:18.181Z,10.68
2023-04-18T06:54:46.653Z,10.85
2023-04-18T06:57:15.889Z,9.77
2023-04-18T06:59:44.376Z,11.48
2023-04-18T07:02:13.174Z,11.70
2023-04-18T07:04:41.673Z,9.50
2023-04-18T07:07:10.170Z,11.55
2023-04-18T07:09:38.682Z,10.27
2023-04-18T07:12:07.974Z,10.40
2023-04-18T07:14:36.360Z,9.88
2023-04-18T07:17:05.146Z,10.13
2023-04-18T07:19:33.909Z,10.93
2023-04-18T07:22:02.401Z,8.23
2023-04-18T07:24:30.960Z,7.95
2023-04-18T07:26:59.449Z,10.75
2023-04-18T07:29:28.009Z,9.93
2023-04-18T07:31:56.503Z,9.30
2023-04-18T07:34:27.298Z,9.98
2023-04-18T07:36:57.270Z,11.52
2023-04-18T07:39:25.768Z,12.13
2023-04-18T07:41:54.474Z,8.32
2023-04-18T07:44:25.177Z,10.15
2023-04-18T07:46:53.563Z,8.73
2023-04-18T07:49:21.968Z,9.40
2023-04-18T07:51:50.449Z,11.15
2023-04-18T07:54:18.972Z,9.52
2023-04-18T07:56:47.430Z,10.75
2023-04-18T07:59:16.082Z,10.20
2023-04-18T08:01:44.716Z,8.98
2023-04-18T08:04:14.642Z,11.48
2023-04-18T08:06:43.425Z,11.57
2023-04-18T08:09:12.457Z,9.45
2023-04-18T08:11:42.592Z,8.48
2023-04-18T08:14:11.540Z,8.93
2023-04-18T08:16:40.211Z,10.85
2023-04-18T08:19:08.732Z,13.95
2023-04-18T08:21:37.247Z,11.68
2023-04-18T08:24:06.146Z,10.43
2023-04-18T08:26:34.660Z,10.80
2023-04-18T08:29:03.299Z,10.93
2023-04-18T08:31:31.804Z,10.98
2023-04-18T08:34:00.795Z,12.25
2023-04-18T08:36:31.515Z,9.75
2023-04-18T08:39:00.015Z,10.45
2023-04-18T08:41:34.169Z,10.27
2023-04-18T08:44:02.789Z,10.70
2023-04-18T08:46:37.228Z,9.57
2023-04-18T08:49:06.348Z,12.75
2023-04-18T08:51:36.392Z,11.98
2023-04-18T08:54:06.326Z,9.98
2023-04-18T08:56:37.426Z,9.30
2023-04-18T08:59:05.921Z,13.23
2023-04-18T09:02:09.006Z,10.23
2023-04-18T09:04:37.714Z,10.68
2023-04-18T09:07:11.000Z,10.38
2023-04-18T09:09:44.195Z,11.30
2023-04-18T09:12:26.823Z,10.65
2023-04-18T09:15:00.394Z,9.88
2023-04-18T09:17:38.074Z,10.02
2023-04-18T09:20:09.921Z,10.52
2023-04-18T09:22:48.616Z,10.75
2023-04-18T09:25:44.971Z,13.82
2023-04-18T09:28:31.862Z,11.45
2023-04-18T09:31:11.898Z,10.13
2023-04-18T09:33:52.767Z,9.88
2023-04-18T09:36:22.410Z,9.43
2023-04-18T09:38:55.326Z,10.77
2023-04-18T09:41:24.996Z,9.10
2023-04-18T09:44:12.321Z,9.07
2023-04-18T09:46:46.085Z,7.45
2023-04-18T09:49:16.895Z,11.38
2023-04-18T09:51:46.282Z,8.73
2023-04-18T09:54:16.595Z,9.45
2023-04-18T09:56:47.465Z,8.73
2023-04-18T09:59:23.966Z,9.60
2023-04-18T10:01:53.121Z,8.77
2023-04-18T10:04:22.272Z,11.07
2023-04-18T10:06:51.202Z,6.10
2023-04-18T10:09:22.060Z,6.28
2023-04-18T10:11:50.504Z,5.53
2023-04-18T10:14:19.771Z,6.13
2023-04-18T10:16:49.272Z,5.43
2023-04-18T10:19:27.376Z,6.53
2023-04-18T10:21:57.801Z,5.70
2023-04-18T10:24:45.240Z,5.43
2023-04-18T10:27:13.855Z,10.32
2023-04-18T10:29:54.338Z,8.18
2023-04-18T10:32:23.494Z,8.95
2023-04-18T10:34:55.406Z,9.20
2023-04-18T10:37:26.704Z,8.38
2023-04-18T10:40:08.019Z,7.20
2023-04-18T10:42:59.868Z,7.32
2023-04-18T10:45:30.953Z,8.00
2023-04-18T10:48:22.992Z,6.50
2023-04-18T10:51:26.840Z,6.13
2023-04-18T10:53:59.486Z,7.55
2023-04-18T10:56:29.100Z,7.53
2023-04-18T10:59:01.816Z,7.32
2023-04-18T11:01:33.052Z,7.65
2023-04-18T11:04:01.982Z,11.68
2023-04-18T11:06:31.332Z,7.05
2023-04-18T11:09:13.618Z,8.20
2023-04-18T11:11:43.369Z,8.20
2023-04-18T11:14:12.002Z,7.93
2023-04-18T11:16:40.833Z,7.65
2023-04-18T11:19:23.236Z,6.78
2023-04-18T11:24:22.758Z,9.48
2023-04-18T11:26:55.934Z,10.27
2023-04-18T11:29:24.712Z,10.45
2023-04-18T11:31:56.596Z,9.77
2023-04-18T11:34:31.369Z,9.35
2023-04-18T11:37:00.317Z,10.63
2023-04-18T11:39:28.803Z,11.13
2023-04-18T11:41:59.202Z,11.40
2023-04-18T11:44:27.771Z,11.13
2023-04-18T11:46:56.208Z,15.32
2023-04-18T11:49:33.763Z,11.45
2023-04-18T11:52:11.265Z,13.68
2023-04-18T11:54:44.933Z,12.65
2023-04-18T11:57:21.016Z,11.48
2023-04-18T11:59:57.773Z,12.65
2023-04-18T12:02:28.310Z,9.77
2023-04-18T12:05:00.355Z,10.15
2023-04-18T12:10:07.460Z,11.43
2023-04-18T12:12:36.358Z,11.68
2023-04-18T12:15:13.815Z,9.52
2023-04-18T12:17:48.619Z,10.18
2023-04-18T12:20:18.470Z,12.75
2023-04-18T12:22:51.467Z,13.85
2023-04-18T12:25:27.364Z,9.95
2023-04-18T12:28:01.125Z,10.48
2023-04-18T12:30:31.833Z,11.88
2023-04-18T12:33:04.450Z,13.32
2023-04-18T12:35:32.980Z,13.05
2023-04-18T12:38:02.869Z,11.93
2023-04-18T12:40:31.404Z,13.82
2023-04-18T12:43:01.470Z,11.55
2023-04-18T12:45:31.667Z,12.57
2023-04-18T12:48:00.324Z,12.55
2023-04-18T12:50:28.914Z,15.00
2023-04-18T12:52:59.562Z,12.13
2023-04-18T12:55:28.912Z,14.20
2023-04-18T12:57:58.201Z,14.30
2023-04-18T13:00:29.626Z,14.10
2023-04-18T13:02:59.208Z,12.68
2023-04-18T13:05:32.460Z,13.35
2023-04-18T13:10:33.302Z,13.00
2023-04-18T13:13:01.771Z,12.57
2023-04-18T13:15:30.254Z,14.77
2023-04-18T13:18:04.694Z,14.63
2023-04-18T13:20:34.363Z,13.85
2023-04-18T13:23:02.915Z,16.85
2023-04-18T13:25:31.593Z,14.23
2023-04-18T13:28:00.769Z,13.55
2023-04-18T13:30:29.676Z,15.00
2023-04-18T13:32:58.416Z,13.52
2023-04-18T13:35:26.941Z,13.40
2023-04-18T13:37:55.990Z,15.18
2023-04-18T13:40:25.220Z,18.92
2023-04-18T13:42:53.891Z,16.23
2023-04-18T13:45:22.356Z,15.82
2023-04-18T13:47:50.922Z,16.10
2023-04-18T13:50:20.292Z,13.88
2023-04-18T13:52:49.397Z,13.82
2023-04-18T13:55:18.698Z,15.35
2023-04-18T13:57:48.212Z,14.02
2023-04-18T14:00:17.461Z,15.15
2023-04-18T14:02:46.050Z,15.65
2023-04-18T14:05:14.762Z,14.73
2023-04-18T14:07:43.547Z,14.55
2023-04-18T14:10:12.029Z,16.90
2023-04-18T14:12:40.547Z,11.57
2023-04-18T14:15:09.632Z,15.57
2023-04-18T14:17:38.210Z,15.43
2023-04-18T14:20:07.761Z,17.52
2023-04-18T14:22:36.337Z,17.25
2023-04-18T14:25:05.407Z,17.48
2023-04-18T14:27:34.160Z,18.10
2023-04-18T14:30:03.118Z,17.35
2023-04-18T14:32:31.626Z,15.75
2023-04-18T14:35:00.265Z,14.25
2023-04-18T14:37:28.765Z,15.40
2023-04-18T14:39:57.286Z,17.65
2023-04-18T14:42:25.746Z,18.88
2023-04-18T14:44:54.484Z,18.15
2023-04-18T14:47:24.283Z,18.27
2023-04-18T14:49:52.843Z,17.30
2023-04-18T14:52:21.249Z,16.63
2023-04-18T14:54:49.650Z,19.10
2023-04-18T14:57:18.445Z,16.50
2023-04-18T14:59:46.869Z,18.58
2023-04-18T15:02:15.664Z,17.35
2023-04-18T15:04:44.341Z,15.95
2023-04-18T15:07:12.874Z,13.10
2023-04-18T15:09:41.352Z,16.52
2023-04-18T15:12:09.894Z,16.33
2023-04-18T15:14:38.431Z,16.67
2023-04-18T15:17:06.873Z,19.42
2023-04-18T15:19:35.415Z,13.90
2023-04-18T15:22:03.841Z,15.77
2023-04-18T15:24:32.339Z,16.33
2023-04-18T15:27:01.440Z,15.63
2023-04-18T15:29:29.929Z,17.88
2023-04-18T15:31:58.374Z,16.73
2023-04-18T15:34:26.946Z,17.67
2023-04-18T15:36:55.526Z,14.85
2023-04-18T15:39:24.143Z,15.32
2023-04-18T15:41:56.466Z,17.17
2023-04-18T15:44:25.172Z,18.45
2023-04-18T15:46:53.591Z,18.17
2023-04-18T15:49:21.980Z,15.65
2023-04-18T15:51:50.416Z,15.40
2023-04-18T15:54:18.890Z,13.43
2023-04-18T15:56:47.259Z,18.67
2023-04-18T15:59:15.681Z,15.52
2023-04-18T16:01:46.015Z,16.20
2023-04-18T16:04:15.338Z,21.52
2023-04-18T16:06:44.009Z,17.40
2023-04-18T16:09:12.454Z,16.30
2023-04-18T16:11:40.871Z,18.92
2023-04-18T16:14:09.404Z,16.95
2023-04-18T16:16:37.785Z,16.02
2023-04-18T16:19:06.358Z,16.95
2023-04-18T16:21:34.962Z,15.10
2023-04-18T16:24:03.572Z,15.90
2023-04-18T16:26:32.138Z,16.42
2023-04-18T16:29:00.667Z,14.88
2023-04-18T16:31:29.234Z,16.40
2023-04-18T16:33:57.780Z,14.13
2023-04-18T16:36:26.513Z,16.30
2023-04-18T16:38:54.903Z,16.65
2023-04-18T16:41:23.293Z,15.75
2023-04-18T16:43:51.779Z,15.32
2023-04-18T16:46:20.238Z,16.00
2023-04-18T16:48:51.056Z,15.23
2023-04-18T16:53:49.819Z,14.70
2023-04-18T16:56:18.232Z,16.40
2023-04-18T16:58:46.851Z,14.65
2023-04-18T17:01:15.575Z,14.27
2023-04-18T17:03:44.496Z,15.82
2023-04-18T17:06:13.099Z,13.65
2023-04-18T17:08:41.495Z,13.25
2023-04-18T17:11:09.936Z,15.10
2023-04-18T17:13:38.453Z,17.02
2023-04-18T17:16:07.397Z,14.02
2023-04-18T17:18:35.930Z,14.13
2023-04-18T17:21:05.288Z,15.25
2023-04-18T17:23:33.820Z,17.10
2023-04-18T17:26:02.251Z,13.13
2023-04-18T17:28:30.738Z,16.05
2023-04-18T17:31:01.465Z,15.23
2023-04-18T17:33:30.562Z,15.18
2023-04-18T17:35:59.109Z,14.15
2023-04-18T17:38:27.606Z,17.40
2023-04-18T17:41:00.371Z,14.10
2023-04-18T17:43:29.191Z,14.48
2023-04-18T17:45:59.611Z,15.80
2023-04-18T17:48:28.063Z,14.63
2023-04-18T17:50:56.650Z,13.45
2023-04-18T17:53:25.198Z,16.15
2023-04-18T17:55:55.240Z,15.45
2023-04-18T17:58:23.654Z,16.45
2023-04-18T18:00:53.519Z,14.25
2023-04-18T18:03:22.379Z,15.45
2023-04-18T18:05:51.906Z,12.88
2023-04-18T18:08:21.641Z,18.02
2023-04-18T18:10:50.226Z,13.35
2023-04-18T18:13:18.735Z,15.60
2023-04-18T18:15:47.308Z,15.75
2023-04-18T18:18:15.871Z,15.57
2023-04-18T18:20:44.454Z,14.45
2023-04-18T18:23:12.833Z,13.52
2023-04-18T18:25:41.578Z,14.25
2023-04-18T18:28:10.153Z,16.20
2023-04-18T18:30:38.765Z,15.35
2023-04-18T18:33:07.273Z,17.40
2023-04-18T18:35:36.444Z,15.65
2023-04-18T18:38:04.940Z,15.20
2023-04-18T18:40:33.432Z,13.75
2023-04-18T18:43:01.976Z,14.30
2023-04-18T18:45:30.427Z,14.07
2023-04-18T18:47:58.954Z,12.90
2023-04-18T18:50:27.624Z,18.35
2023-04-18T18:52:56.119Z,14.98
2023-04-18T18:55:24.598Z,13.02
2023-04-18T18:57:54.069Z,14.07
2023-04-18T19:00:22.696Z,13.60
2023-04-18T19:02:51.371Z,17.25
2023-04-18T19:05:19.989Z,13.90
2023-04-18T19:07:49.179Z,13.45
2023-04-18T19:10:17.796Z,12.15
2023-04-18T19:12:46.320Z,14.35
2023-04-18T19:15:14.893Z,15.30
2023-04-18T19:17:43.407Z,15.20
2023-04-18T19:20:11.868Z,11.95
2023-04-18T19:22:40.588Z,12.95
2023-04-18T19:25:09.678Z,13.07
2023-04-18T19:27:38.194Z,14.68
2023-04-18T19:30:07.434Z,14.43
2023-04-18T19:32:35.987Z,15.27
2023-04-18T19:35:05.757Z,12.63
2023-04-18T19:37:34.179Z,13.80
2023-04-18T19:40:02.801Z,15.38
2023-04-18T19:42:31.693Z,11.95
2023-04-18T19:45:00.468Z,13.98
2023-04-18T19:47:32.183Z,12.20
2023-04-18T19:50:01.400Z,14.05
2023-04-18T19:52:29.796Z,11.13
2023-04-18T19:54:58.207Z,12.32
2023-04-18T19:57:28.818Z,13.07
2023-04-18T19:59:57.279Z,10.75
2023-04-18T20:02:25.954Z,13.38
2023-04-18T20:04:54.661Z,12.52
2023-04-18T20:07:24.217Z,14.75
2023-04-18T20:09:54.928Z,13.57
2023-04-18T20:12:23.676Z,12.43
2023-04-18T20:14:52.501Z,11.85
2023-04-18T20:17:21.241Z,13.15
2023-04-18T20:19:51.051Z,11.43
2023-04-18T20:22:19.851Z,12.00
2023-04-18T20:24:49.134Z,11.88
2023-04-18T20:27:20.440Z,14.63
2023-04-18T20:29:49.099Z,12.98
2023-04-18T20:32:17.608Z,11.40
2023-04-18T20:34:46.702Z,13.02
2023-04-18T20:37:18.679Z,11.68
2023-04-18T20:39:47.556Z,11.88
2023-04-18T20:42:17.540Z,11.35
2023-04-18T20:44:46.722Z,12.45
2023-04-18T20:47:15.948Z,12.68
2023-04-18T20:49:44.595Z,14.57
2023-04-18T20:52:14.524Z,12.38
2023-04-18T20:54:43.074Z,10.95
2023-04-18T20:57:11.618Z,11.43
2023-04-18T20:59:40.258Z,11.88
2023-04-18T21:02:08.978Z,13.27
2023-04-18T21:04:37.698Z,15.98
2023-04-18T21:07:06.361Z,11.48
2023-04-18T21:09:36.723Z,13.00
2023-04-18T21:12:05.673Z,11.07
2023-04-18T21:14:34.166Z,12.38
2023-04-18T21:17:02.781Z,12.18
2023-04-18T21:19:31.383Z,10.95
2023-04-18T21:21:59.794Z,13.25
2023-04-18T21:24:28.247Z,10.00
2023-04-18T21:26:57.728Z,12.00
2023-04-18T21:29:26.190Z,11.45
2023-04-18T21:31:54.839Z,12.05
2023-04-18T21:34:23.393Z,11.65
2023-04-18T21:36:51.898Z,11.82
2023-04-18T21:39:20.335Z,10.63
2023-04-18T21:41:48.763Z,12.95
2023-04-18T21:44:18.868Z,11.73
2023-04-18T21:46:47.276Z,9.93
2023-04-18T21:49:15.934Z,12.57
2023-04-18T21:51:44.981Z,11.00
2023-04-18T21:54:13.861Z,12.93
2023-04-18T21:56:43.095Z,11.15
2023-04-18T21:59:11.582Z,12.43
2023-04-18T22:01:40.061Z,10.65
2023-04-18T22:04:09.017Z,11.73
2023-04-18T22:06:37.820Z,13.13
2023-04-18T22:09:06.406Z,11.77
2023-04-18T22:11:34.792Z,11.25
2023-04-18T22:14:03.318Z,11.25
2023-04-18T22:16:33.319Z,11.60
2023-04-18T22:19:01.898Z,12.18
2023-04-18T22:21:31.310Z,11.40
2023-04-18T22:23:59.748Z,11.10
2023-04-18T22:26:28.313Z,10.63
2023-04-18T22:28:56.768Z,11.30
2023-04-18T22:31:25.428Z,11.65
2023-04-18T22:33:54.040Z,9.82
2023-04-18T22:36:22.607Z,11.40
2023-04-18T22:38:51.029Z,13.18
2023-04-18T22:41:19.559Z,10.75
2023-04-18T22:43:49.073Z,12.15
2023-04-18T22:46:17.530Z,9.98
2023-04-18T22:48:46.231Z,11.68
2023-04-18T22:51:14.805Z,13.18
2023-04-18T22:53:43.545Z,12.48
2023-04-18T22:56:12.001Z,12.57
2023-04-18T22:58:40.470Z,12.40
2023-04-18T23:01:08.865Z,12.70
2023-04-18T23:03:37.359Z,12.27
2023-04-18T23:06:08.802Z,14.23
2023-04-18T23:08:37.296Z,13.27
2023-04-18T23:11:05.914Z,11.85
2023-04-18T23:13:34.417Z,13.57
2023-04-18T23:16:02.872Z,14.27
2023-04-18T23:18:31.379Z,14.93
2023-04-18T23:21:00.260Z,13.07
2023-04-18T23:23:28.764Z,12.07
2023-04-18T23:25:57.497Z,13.40
2023-04-18T23:28:26.209Z,13.45
2023-04-18T23:30:54.587Z,12.00
2023-04-18T23:33:23.004Z,12.35
2023-04-18T23:35:51.462Z,12.75
2023-04-18T23:38:20.020Z,12.65
2023-04-18T23:40:48.493Z,13.73
2023-04-18T23:43:16.934Z,11.57
2023-04-18T23:45:45.474Z,14.23
2023-04-18T23:48:13.946Z,13.13
2023-04-18T23:50:47.313Z,11.85
2023-04-18T23:53:19.539Z,11.35
2023-04-18T23:58:19.429Z,12.98
